Catàleg de serveis del Meteocat
Campanya meteocatpedra

Dades de l'estació automàtica Alcarràs

?
?
Resum diari 21:00 TU
Dades diàries de l'estació meteorològica
Temperatura mitjana 21.7 °C
Temperatura màxima 28.8 °C 13:42 TU
Temperatura mínima 17.2 °C 2:30 TU
Humitat relativa mitjana 82%
Precipitació acumulada 6.0 mm
Ratxa màxima del vent (2 m) 14.8 km/h - 65º 15:57 TU

El tram horari està expressat en Temps Universal (TU). Cal sumar una hora en horari d'hivern i dues en horari d'estiu per passar a l'hora oficial.

Alcarràs

Metadades estació meteorol´gica
Municipi Alcarràs
Comarca Segrià
Altitud 122 m
Data alta 31.07.2013
Estat actual Operativa
Dades de període
Període
TU
TM
°C
TX
°C
TN
°C
HRM
%
PPT
mm
VVM (2 m)
km/h
DVM (2 m)
graus
VVX (2 m)
km/h
00:00 - 00:30 19.5 19.6 19.3 84 0.0 3.2 57 7.6
00:30 - 01:00 18.9 19.3 18.4 89 0.0 1.8 34 4.7
01:00 - 01:30 18.2 18.4 18.0 97 0.0 1.1 60 4.3
01:30 - 02:00 18.1 18.3 18.0 99 0.0 1.1 246 4.7
02:00 - 02:30 17.7 18.0 17.2 100 0.0 0.7 20 4.3
02:30 - 03:00 17.9 18.6 17.2 99 0.0 4.0 34 9.7
03:00 - 03:30 18.7 19.0 18.3 95 0.0 2.5 27 7.2
03:30 - 04:00 18.3 18.4 18.3 100 0.0 1.4 34 4.3
04:00 - 04:30 18.9 19.4 18.3 91 0.0 2.2 45 7.6
04:30 - 05:00 19.1 19.2 18.7 91 0.4 1.1 163 6.1
05:00 - 05:30 18.0 18.7 17.8 100 4.8 3.6 32 10.8
05:30 - 06:00 17.9 18.0 17.8 100 0.8 1.1 333 8.3
06:00 - 06:30 17.7 17.8 17.7 100 0.0 1.4 62 5.8
06:30 - 07:00 17.8 18.0 17.7 100 0.0 1.8 80 7.2
07:00 - 07:30 18.1 18.2 18.0 100 0.0 2.2 45 6.5
07:30 - 08:00 18.2 18.4 18.1 100 0.0 1.4 174 7.6
08:00 - 08:30 18.4 18.7 18.2 100 0.0 1.1 39 4.3
08:30 - 09:00 19.0 19.4 18.7 100 0.0 3.2 57 10.4
09:00 - 09:30 20.4 21.9 19.4 96 0.0 3.6 61 10.1
09:30 - 10:00 22.0 22.4 21.6 81 0.0 3.6 82 10.4
10:00 - 10:30 22.8 23.5 22.4 75 0.0 4.0 55 10.8
10:30 - 11:00 23.9 24.9 23.4 69 0.0 2.5 75 9.4
11:00 - 11:30 24.8 25.3 24.4 65 0.0 2.9 310 7.2
11:30 - 12:00 25.5 26.2 24.9 62 0.0 2.5 25 6.8
12:00 - 12:30 26.4 27.3 25.8 57 0.0 3.2 287 10.8
12:30 - 13:00 27.1 27.7 26.4 55 0.0 2.9 286 7.6
13:00 - 13:30 27.1 27.5 26.4 55 0.0 2.5 41 8.3
13:30 - 14:00 28.3 28.8 27.5 52 0.0 2.2 257 5.4
14:00 - 14:30 28.3 28.6 27.9 52 0.0 2.9 58 9.0
14:30 - 15:00 27.7 28.2 27.4 53 0.0 2.5 53 7.6
15:00 - 15:30 28.2 28.6 27.6 52 0.0 3.2 88 10.8
15:30 - 16:00 27.2 27.8 26.1 52 0.0 5.8 67 14.8
16:00 - 16:30 25.3 26.1 24.8 56 0.0 4.7 75 13.3
16:30 - 17:00 24.7 24.9 24.4 62 0.0 2.5 61 8.6
17:00 - 17:30 24.2 24.4 23.7 67 0.0 3.2 47 9.7
17:30 - 18:00 23.3 23.6 22.5 72 0.0 2.5 33 7.6
18:00 - 18:30 21.9 22.7 21.2 83 0.0 0.4 36 3.2
18:30 - 19:00 20.9 21.2 20.7 92 0.0 0.7 8 4.7
19:00 - 19:30 20.7 21.0 20.3 90 0.0 1.8 47 4.3
19:30 - 20:00 20.1 20.3 20.0 98 0.0 0.7 87 3.6
20:00 - 20:30 20.1 20.2 19.9 99 0.0 1.1 42 5.8
20:30 - 21:00 20.1 20.2 20.0 98 0.0 1.4 42 4.0
21:00 - 21:30 19.6 20.2 19.2 99 0.0 0.0 165 2.2

Les dades en taronja només han passat un control de qualitat automàtic. Resta pendent la seva validació definitiva.